Terminal Aerodrome Forecast
Issued by NWS

Home | Current Version | Previous Version | Graphics & Text | Print | Product List | Glossary On
Versions: 1 2 3 4 5 6 7 8 9 10 11 12 13 14 15 16 17 18 19 20 21 22 23 24 25 26
000
FTUS43 KBIS 132336
TAFMOT
TAF
KMOT 132336Z 1400/1424 10007KT P6SM FEW070
     FM140200 13004KT P6SM SKC
     FM140500 19004KT P6SM SKC
     FM141400 VRB03KT P6SM FEW250
     FM141600 10008KT P6SM FEW200
     FM142000 12011KT P6SM SCT250=

USA.gov is the U.S. government's official web portal to all federal, state and local government web resources and services.